createdAt,value
2022-11-20T00:00:51.367Z,19.10
2022-11-20T00:01:51.421Z,17.90
2022-11-20T00:02:51.356Z,17.60
2022-11-20T00:03:51.370Z,18.40
2022-11-20T00:04:51.349Z,17.50
2022-11-20T00:05:51.333Z,20.00
2022-11-20T00:06:51.333Z,18.90
2022-11-20T00:07:51.312Z,19.30
2022-11-20T00:08:51.302Z,19.30
2022-11-20T00:09:51.298Z,19.60
2022-11-20T00:10:52.283Z,18.90
2022-11-20T00:11:51.276Z,19.10
2022-11-20T00:12:51.268Z,20.50
2022-11-20T00:13:51.250Z,20.40
2022-11-20T00:14:52.263Z,20.10
2022-11-20T00:15:51.249Z,20.70
2022-11-20T00:16:51.269Z,20.00
2022-11-20T00:17:51.227Z,18.70
2022-11-20T00:18:51.252Z,18.90
2022-11-20T00:19:51.237Z,20.30
2022-11-20T00:20:51.209Z,19.50
2022-11-20T00:21:51.180Z,18.00
2022-11-20T00:22:51.166Z,18.80
2022-11-20T00:23:51.158Z,18.20
2022-11-20T00:24:51.172Z,18.00
2022-11-20T00:25:51.165Z,18.60
2022-11-20T00:26:51.140Z,18.90
2022-11-20T00:27:51.117Z,18.50
2022-11-20T00:28:51.131Z,18.40
2022-11-20T00:29:51.104Z,18.00
2022-11-20T00:30:51.127Z,18.50
2022-11-20T00:31:51.092Z,21.90
2022-11-20T00:32:51.083Z,23.60
2022-11-20T00:33:51.078Z,21.30
2022-11-20T00:34:51.056Z,20.30
2022-11-20T00:35:51.053Z,19.70
2022-11-20T00:36:51.050Z,18.90
2022-11-20T00:37:51.051Z,19.40
2022-11-20T00:38:51.030Z,19.10
2022-11-20T00:39:51.008Z,18.40
2022-11-20T00:40:54.687Z,22.40
2022-11-20T00:41:52.003Z,22.60
2022-11-20T00:42:51.005Z,21.90
2022-11-20T00:43:50.971Z,21.00
2022-11-20T00:44:50.986Z,20.60
2022-11-20T00:45:50.954Z,19.80
2022-11-20T00:46:50.965Z,19.50
2022-11-20T00:47:50.942Z,19.30
2022-11-20T00:48:50.918Z,17.10
2022-11-20T00:49:50.923Z,18.40
2022-11-20T00:50:50.920Z,17.00
2022-11-20T00:51:50.937Z,17.40
2022-11-20T00:52:50.928Z,17.70
2022-11-20T00:53:50.893Z,16.80
2022-11-20T00:54:50.881Z,17.20
2022-11-20T00:55:50.862Z,17.50
2022-11-20T00:56:50.872Z,17.20
2022-11-20T00:57:50.849Z,18.30
2022-11-20T00:58:50.841Z,16.70
2022-11-20T00:59:50.830Z,17.80
2022-11-20T01:00:50.845Z,18.60
2022-11-20T01:01:50.825Z,16.50
2022-11-20T01:02:50.803Z,17.50
2022-11-20T01:03:50.816Z,18.10
2022-11-20T01:04:50.782Z,18.30
2022-11-20T01:05:50.775Z,18.40
2022-11-20T01:06:50.760Z,18.30
2022-11-20T01:07:50.759Z,18.30
2022-11-20T01:08:50.764Z,18.40
2022-11-20T01:09:50.758Z,18.00
2022-11-20T01:10:50.735Z,17.30
2022-11-20T01:11:50.700Z,17.40
2022-11-20T01:12:50.718Z,18.40
2022-11-20T01:13:50.782Z,18.20
2022-11-20T01:14:50.680Z,17.70
2022-11-20T01:15:50.675Z,18.30
2022-11-20T01:16:50.665Z,16.70
2022-11-20T01:17:50.697Z,16.60
2022-11-20T01:18:50.663Z,19.90
2022-11-20T01:19:50.680Z,17.40
2022-11-20T01:20:50.619Z,18.10
2022-11-20T01:21:50.633Z,17.40
2022-11-20T01:22:50.614Z,18.60
2022-11-20T01:23:51.723Z,19.30
2022-11-20T01:24:50.642Z,18.90
2022-11-20T01:25:50.571Z,18.80
2022-11-20T01:26:50.571Z,19.40
2022-11-20T01:27:50.562Z,19.60
2022-11-20T01:28:50.547Z,19.30
2022-11-20T01:29:50.557Z,19.20
2022-11-20T01:30:50.532Z,20.60
2022-11-20T01:31:50.518Z,19.70
2022-11-20T01:32:50.510Z,18.60
2022-11-20T01:33:50.514Z,20.20
2022-11-20T01:34:50.494Z,20.20
2022-11-20T01:35:50.502Z,19.70
2022-11-20T01:36:50.489Z,19.70
2022-11-20T01:37:50.487Z,19.60
2022-11-20T01:38:50.461Z,20.00
2022-11-20T01:39:50.448Z,20.90
2022-11-20T01:40:50.425Z,19.40
2022-11-20T01:41:50.432Z,20.40
2022-11-20T01:42:50.433Z,21.00
2022-11-20T01:43:50.405Z,21.60
2022-11-20T01:44:50.408Z,19.70
2022-11-20T01:45:50.396Z,19.70
2022-11-20T01:46:50.377Z,20.10
2022-11-20T01:47:50.400Z,19.70
2022-11-20T01:48:50.368Z,20.50
2022-11-20T01:49:50.349Z,19.80
2022-11-20T01:50:50.337Z,20.00
2022-11-20T01:51:50.330Z,19.90
2022-11-20T01:52:50.338Z,19.70
2022-11-20T01:53:50.321Z,21.40
2022-11-20T01:54:50.311Z,21.40
2022-11-20T01:55:50.298Z,20.60
2022-11-20T01:56:50.299Z,21.10
2022-11-20T01:57:50.299Z,19.60
2022-11-20T01:58:50.275Z,20.00
2022-11-20T01:59:50.264Z,19.30
2022-11-20T02:00:50.253Z,19.70
2022-11-20T02:01:50.242Z,21.20
2022-11-20T02:02:50.252Z,19.80
2022-11-20T02:03:50.224Z,21.30
2022-11-20T02:04:50.213Z,20.10
2022-11-20T02:05:50.219Z,19.70
2022-11-20T02:06:50.192Z,21.70
2022-11-20T02:07:50.227Z,21.50
2022-11-20T02:08:50.185Z,20.70
2022-11-20T02:09:50.165Z,19.90
2022-11-20T02:10:50.160Z,19.60
2022-11-20T02:11:50.160Z,19.60
2022-11-20T02:12:50.155Z,19.00
2022-11-20T02:13:50.142Z,19.70
2022-11-20T02:14:50.134Z,19.30
2022-11-20T02:15:50.139Z,19.40
2022-11-20T02:16:50.128Z,19.40
2022-11-20T02:17:50.099Z,18.40
2022-11-20T02:18:50.091Z,18.80
2022-11-20T02:19:50.079Z,19.00
2022-11-20T02:20:50.088Z,19.00
2022-11-20T02:21:50.056Z,17.60
2022-11-20T02:22:50.060Z,18.80
2022-11-20T02:23:50.044Z,19.00
2022-11-20T02:24:50.055Z,19.20
2022-11-20T02:25:50.028Z,20.30
2022-11-20T02:26:50.022Z,19.70
2022-11-20T02:27:49.999Z,20.10
2022-11-20T02:28:50.123Z,19.70
2022-11-20T02:29:50.009Z,21.00
2022-11-20T02:30:49.973Z,20.90
2022-11-20T02:31:49.960Z,20.10
2022-11-20T02:32:49.964Z,21.20
2022-11-20T02:33:49.964Z,19.50
2022-11-20T02:34:49.956Z,20.30
2022-11-20T02:35:49.932Z,21.00
2022-11-20T02:36:49.927Z,20.50
2022-11-20T02:37:49.916Z,20.00
2022-11-20T02:38:49.899Z,20.90
2022-11-20T02:39:49.889Z,20.60
2022-11-20T02:40:55.174Z,21.40
2022-11-20T02:41:51.861Z,21.80
2022-11-20T02:42:49.878Z,20.20
2022-11-20T02:43:49.859Z,21.40
2022-11-20T02:44:49.840Z,20.70
2022-11-20T02:45:49.834Z,22.00
2022-11-20T02:46:49.832Z,21.70
2022-11-20T02:47:49.832Z,22.50
2022-11-20T02:48:49.830Z,21.20
2022-11-20T02:49:49.792Z,21.20
2022-11-20T02:50:49.778Z,21.40
2022-11-20T02:51:49.781Z,22.60
2022-11-20T02:52:49.756Z,22.10
2022-11-20T02:53:49.772Z,21.00
2022-11-20T02:54:49.748Z,22.20
2022-11-20T02:55:49.752Z,21.90
2022-11-20T02:56:49.736Z,22.50
2022-11-20T02:57:49.726Z,21.20
2022-11-20T02:58:49.718Z,22.00
2022-11-20T02:59:49.726Z,23.70
2022-11-20T03:00:49.696Z,22.80
2022-11-20T03:01:57.482Z,21.80
2022-11-20T03:02:49.674Z,21.60
2022-11-20T03:03:49.675Z,21.00
2022-11-20T03:04:49.683Z,21.40
2022-11-20T03:05:49.639Z,21.20
2022-11-20T03:06:49.645Z,21.40
2022-11-20T03:07:49.636Z,21.70
2022-11-20T03:08:49.624Z,21.10
2022-11-20T03:09:49.640Z,21.80
2022-11-20T03:10:49.606Z,22.30
2022-11-20T03:11:49.666Z,22.10
2022-11-20T03:12:49.610Z,21.00
2022-11-20T03:13:49.574Z,21.40
2022-11-20T03:14:53.082Z,20.80
2022-11-20T03:15:50.566Z,20.90
2022-11-20T03:16:49.578Z,21.00
2022-11-20T03:17:49.536Z,20.70
2022-11-20T03:18:49.544Z,21.20
2022-11-20T03:19:49.533Z,22.30
2022-11-20T03:20:49.517Z,21.00
2022-11-20T03:21:49.509Z,20.30
2022-11-20T03:22:49.512Z,20.60
2022-11-20T03:23:49.475Z,21.90
2022-11-20T03:24:49.474Z,21.30
2022-11-20T03:25:49.507Z,21.00
2022-11-20T03:26:49.457Z,21.20
2022-11-20T03:27:49.447Z,22.30
2022-11-20T03:28:49.450Z,23.10
2022-11-20T03:29:49.423Z,22.60
2022-11-20T03:30:49.428Z,22.50
2022-11-20T03:31:49.404Z,23.00
2022-11-20T03:32:49.429Z,22.30
2022-11-20T03:33:49.405Z,22.10
2022-11-20T03:34:49.373Z,21.50
2022-11-20T03:35:50.370Z,21.80
2022-11-20T03:36:49.357Z,22.20
2022-11-20T03:37:49.345Z,22.40
2022-11-20T03:38:49.359Z,23.00
2022-11-20T03:39:49.360Z,22.00
2022-11-20T03:40:49.320Z,21.30
2022-11-20T03:41:50.321Z,21.40
2022-11-20T03:42:49.297Z,23.50
2022-11-20T03:43:49.299Z,22.70
2022-11-20T03:44:49.304Z,21.50
2022-11-20T03:45:49.291Z,21.90
2022-11-20T03:46:49.273Z,22.60
2022-11-20T03:47:49.265Z,21.80
2022-11-20T03:48:51.941Z,21.70
2022-11-20T03:49:50.257Z,22.50
2022-11-20T03:50:49.232Z,21.20
2022-11-20T03:51:49.232Z,21.60
2022-11-20T03:52:49.230Z,21.60
2022-11-20T03:53:49.205Z,22.20
2022-11-20T03:54:49.209Z,21.10
2022-11-20T03:55:49.188Z,22.50
2022-11-20T03:56:49.191Z,20.70
2022-11-20T03:57:49.172Z,21.00
2022-11-20T03:58:49.155Z,21.40
2022-11-20T03:59:49.144Z,21.60
2022-11-20T04:00:49.142Z,21.40
2022-11-20T04:01:49.700Z,22.80
2022-11-20T04:02:49.148Z,22.60
2022-11-20T04:03:49.109Z,22.50
2022-11-20T04:04:49.100Z,22.40
2022-11-20T04:05:49.104Z,22.60
2022-11-20T04:06:49.104Z,21.40
2022-11-20T04:07:49.082Z,21.20
2022-11-20T04:08:53.548Z,21.30
2022-11-20T04:09:51.086Z,20.30
2022-11-20T04:10:49.051Z,21.60
2022-11-20T04:11:49.040Z,21.50
2022-11-20T04:12:49.046Z,21.10
2022-11-20T04:13:49.012Z,20.30
2022-11-20T04:14:49.009Z,19.40
2022-11-20T04:15:49.017Z,19.70
2022-11-20T04:16:48.994Z,19.60
2022-11-20T04:17:48.980Z,20.50
2022-11-20T04:18:48.995Z,19.80
2022-11-20T04:19:48.963Z,20.10
2022-11-20T04:20:48.956Z,19.40
2022-11-20T04:21:48.946Z,19.80
2022-11-20T04:22:48.987Z,19.30
2022-11-20T04:23:48.928Z,19.00
2022-11-20T04:24:48.910Z,19.20
2022-11-20T04:25:48.908Z,18.90
2022-11-20T04:26:48.905Z,18.70
2022-11-20T04:27:48.910Z,18.90
2022-11-20T04:28:48.876Z,19.80
2022-11-20T04:29:48.895Z,19.40
2022-11-20T04:30:48.859Z,19.20
2022-11-20T04:31:48.844Z,19.90
2022-11-20T04:32:48.842Z,20.50
2022-11-20T04:33:48.842Z,21.60
2022-11-20T04:34:48.844Z,22.30
2022-11-20T04:35:48.796Z,22.20
2022-11-20T04:36:48.826Z,21.70
2022-11-20T04:37:48.783Z,19.80
2022-11-20T04:38:53.828Z,20.00
2022-11-20T04:39:49.778Z,20.40
2022-11-20T04:40:48.760Z,19.70
2022-11-20T04:41:48.757Z,19.20
2022-11-20T04:42:48.748Z,19.20
2022-11-20T04:43:48.762Z,18.40
2022-11-20T04:44:48.727Z,18.90
2022-11-20T04:45:48.735Z,19.30
2022-11-20T04:46:48.720Z,19.10
2022-11-20T04:47:48.698Z,18.70
2022-11-20T04:48:48.714Z,19.50
2022-11-20T04:49:48.752Z,19.00
2022-11-20T04:50:48.668Z,19.50
2022-11-20T04:51:48.663Z,19.40
2022-11-20T04:52:48.652Z,19.10
2022-11-20T04:53:48.643Z,18.30
2022-11-20T04:54:48.645Z,19.00
2022-11-20T04:55:48.647Z,20.00
2022-11-20T04:56:48.874Z,19.90
2022-11-20T04:57:49.595Z,19.60
2022-11-20T04:58:48.598Z,19.40
2022-11-20T04:59:48.602Z,20.80
2022-11-20T05:00:48.583Z,20.70
2022-11-20T05:01:48.600Z,20.60
2022-11-20T05:02:48.557Z,20.50
2022-11-20T05:03:48.543Z,21.90
2022-11-20T05:04:48.562Z,21.90
2022-11-20T05:05:48.524Z,21.50
2022-11-20T05:06:48.526Z,20.80
2022-11-20T05:07:48.504Z,22.20
2022-11-20T05:08:48.501Z,21.90
2022-11-20T05:09:48.486Z,21.80
2022-11-20T05:10:48.480Z,22.70
2022-11-20T05:11:51.464Z,22.90
2022-11-20T05:12:49.438Z,22.90
2022-11-20T05:13:48.443Z,22.50
2022-11-20T05:14:48.440Z,22.60
2022-11-20T05:15:48.421Z,22.90
2022-11-20T05:16:48.404Z,23.80
2022-11-20T05:17:48.410Z,23.70
2022-11-20T05:18:48.384Z,24.40
2022-11-20T05:19:52.030Z,23.70
2022-11-20T05:20:49.357Z,22.90
2022-11-20T05:21:48.353Z,23.90
2022-11-20T05:22:48.361Z,24.20
2022-11-20T05:23:48.334Z,23.50
2022-11-20T05:24:48.333Z,24.00
2022-11-20T05:25:48.341Z,22.90
2022-11-20T05:26:48.325Z,23.30
2022-11-20T05:27:48.309Z,24.60
2022-11-20T05:28:48.290Z,23.20
2022-11-20T05:29:48.272Z,22.60
2022-11-20T05:30:48.264Z,23.60
2022-11-20T05:31:48.273Z,24.20
2022-11-20T05:32:48.251Z,23.80
2022-11-20T05:33:48.233Z,23.60
2022-11-20T05:34:48.245Z,23.70
2022-11-20T05:35:48.219Z,23.50
2022-11-20T05:36:48.209Z,24.00
2022-11-20T05:37:48.192Z,24.40
2022-11-20T05:38:51.131Z,23.50
2022-11-20T05:39:49.195Z,23.90
2022-11-20T05:40:48.164Z,23.80
2022-11-20T05:41:48.148Z,22.90
2022-11-20T05:42:48.142Z,23.40
2022-11-20T05:43:48.138Z,22.90
2022-11-20T05:44:48.134Z,23.40
2022-11-20T05:45:48.107Z,24.20
2022-11-20T05:46:48.108Z,24.50
2022-11-20T05:47:48.100Z,25.70
2022-11-20T05:48:48.101Z,25.80
2022-11-20T05:49:48.103Z,26.50
2022-11-20T05:50:48.088Z,26.70
2022-11-20T05:51:48.059Z,26.20
2022-11-20T05:52:48.067Z,25.70
2022-11-20T05:53:48.772Z,26.20
2022-11-20T05:54:49.060Z,26.10
2022-11-20T05:55:48.018Z,24.80
2022-11-20T05:56:48.014Z,25.60
2022-11-20T05:57:48.029Z,24.60
2022-11-20T05:58:48.000Z,25.30
2022-11-20T05:59:47.992Z,25.10
2022-11-20T06:00:47.966Z,25.90
2022-11-20T06:01:47.960Z,24.40
2022-11-20T06:02:48.021Z,25.70
2022-11-20T06:03:47.962Z,25.40
2022-11-20T06:04:47.925Z,25.00
2022-11-20T06:05:47.922Z,24.90
2022-11-20T06:06:47.908Z,25.30
2022-11-20T06:07:47.909Z,25.00
2022-11-20T06:08:47.952Z,25.10
2022-11-20T06:09:47.871Z,25.20
2022-11-20T06:10:47.875Z,23.80
2022-11-20T06:11:47.863Z,24.50
2022-11-20T06:12:47.855Z,23.60
2022-11-20T06:13:47.867Z,24.50
2022-11-20T06:14:47.848Z,24.90
2022-11-20T06:15:47.821Z,25.10
2022-11-20T06:16:47.817Z,25.80
2022-11-20T06:17:47.854Z,25.80
2022-11-20T06:18:47.819Z,25.00
2022-11-20T06:19:47.797Z,25.10
2022-11-20T06:20:47.780Z,24.70
2022-11-20T06:21:47.779Z,25.50
2022-11-20T06:22:47.785Z,25.70
2022-11-20T06:23:47.759Z,26.30
2022-11-20T06:24:47.759Z,25.90
2022-11-20T06:25:47.724Z,26.00
2022-11-20T06:26:47.722Z,26.70
2022-11-20T06:27:47.720Z,26.70
2022-11-20T06:28:47.704Z,27.80
2022-11-20T06:29:47.724Z,26.90
2022-11-20T06:30:47.712Z,26.20
2022-11-20T06:31:47.673Z,25.20
2022-11-20T06:32:47.667Z,25.20
2022-11-20T06:33:47.664Z,25.50
2022-11-20T06:34:47.638Z,25.70
2022-11-20T06:35:47.644Z,25.90
2022-11-20T06:36:47.620Z,25.20
2022-11-20T06:37:47.620Z,26.20
2022-11-20T06:38:47.601Z,27.00
2022-11-20T06:39:47.592Z,27.20
2022-11-20T06:40:47.598Z,26.40
2022-11-20T06:41:47.629Z,25.60
2022-11-20T06:42:47.571Z,26.60
2022-11-20T06:43:47.554Z,26.40
2022-11-20T06:44:47.567Z,27.10
2022-11-20T06:45:47.562Z,27.00
2022-11-20T06:46:47.555Z,26.80
2022-11-20T06:47:47.507Z,25.10
2022-11-20T06:48:47.518Z,26.60
2022-11-20T06:49:47.501Z,26.40
2022-11-20T06:50:47.501Z,25.60
2022-11-20T06:51:47.502Z,25.70
2022-11-20T06:52:47.469Z,26.50
2022-11-20T06:53:47.461Z,26.90
2022-11-20T06:54:47.444Z,28.20
2022-11-20T06:55:47.433Z,28.20
2022-11-20T06:56:47.445Z,28.10
2022-11-20T06:57:49.769Z,28.20
2022-11-20T06:58:48.438Z,28.30
2022-11-20T06:59:47.408Z,27.90
2022-11-20T07:00:47.491Z,28.00
2022-11-20T07:01:47.382Z,29.50
2022-11-20T07:02:47.370Z,28.00
2022-11-20T07:03:52.852Z,29.50
2022-11-20T07:04:49.366Z,27.60
2022-11-20T07:05:47.345Z,28.40
2022-11-20T07:06:47.385Z,27.90
2022-11-20T07:07:47.318Z,26.90
2022-11-20T07:08:47.325Z,28.70
2022-11-20T07:09:47.380Z,27.90
2022-11-20T07:10:47.300Z,26.20
2022-11-20T07:11:47.313Z,26.50
2022-11-20T07:12:47.275Z,27.80
2022-11-20T07:13:47.268Z,28.50
2022-11-20T07:14:47.249Z,25.90
2022-11-20T07:15:47.254Z,25.80
2022-11-20T07:16:47.234Z,28.00
2022-11-20T07:17:47.265Z,26.40
2022-11-20T07:18:50.541Z,27.20
2022-11-20T07:19:48.213Z,27.10
2022-11-20T07:20:47.194Z,32.20
2022-11-20T07:21:47.192Z,28.90
2022-11-20T07:22:47.190Z,26.90
2022-11-20T07:23:47.163Z,29.00
2022-11-20T07:24:47.155Z,29.60
2022-11-20T07:25:47.173Z,29.50
2022-11-20T07:26:47.145Z,34.70
2022-11-20T07:27:47.117Z,36.20
2022-11-20T07:28:48.145Z,32.70
2022-11-20T07:29:47.104Z,32.70
2022-11-20T07:30:47.118Z,35.40
2022-11-20T07:31:47.124Z,34.70
2022-11-20T07:32:47.077Z,33.70
2022-11-20T07:33:47.085Z,35.60
2022-11-20T07:34:47.088Z,35.30
2022-11-20T07:35:47.069Z,33.00
2022-11-20T07:36:47.051Z,35.10
2022-11-20T07:37:47.045Z,31.30
2022-11-20T07:38:47.020Z,28.60
2022-11-20T07:39:47.029Z,29.50
2022-11-20T07:40:47.020Z,31.80
2022-11-20T07:41:46.992Z,31.30
2022-11-20T07:42:46.984Z,30.80
2022-11-20T07:43:47.010Z,30.90
2022-11-20T07:44:46.954Z,31.60
2022-11-20T07:45:46.936Z,31.80
2022-11-20T07:46:47.945Z,31.70
2022-11-20T07:47:46.925Z,32.60
2022-11-20T07:48:46.987Z,32.10
2022-11-20T07:49:46.921Z,33.70
2022-11-20T07:50:46.899Z,33.10
2022-11-20T07:51:50.171Z,33.20
2022-11-20T07:52:47.878Z,32.70
2022-11-20T07:53:46.867Z,32.40
2022-11-20T07:54:46.877Z,35.00
2022-11-20T07:55:46.847Z,35.70
2022-11-20T07:56:46.838Z,33.10
2022-11-20T07:57:46.833Z,33.60
2022-11-20T07:58:46.852Z,36.50
2022-11-20T07:59:46.818Z,34.70
2022-11-20T08:00:46.873Z,34.40
2022-11-20T08:01:46.801Z,34.10
2022-11-20T08:02:46.781Z,32.20
2022-11-20T08:03:46.806Z,33.60
2022-11-20T08:04:46.775Z,32.70
2022-11-20T08:05:46.761Z,34.50
2022-11-20T08:06:46.759Z,32.20
2022-11-20T08:07:46.833Z,31.90
2022-11-20T08:08:46.741Z,32.70
2022-11-20T08:09:46.751Z,33.90
2022-11-20T08:10:46.717Z,33.30
2022-11-20T08:11:46.708Z,34.70
2022-11-20T08:12:46.705Z,34.30
2022-11-20T08:13:46.684Z,33.60
2022-11-20T08:14:46.684Z,35.20
2022-11-20T08:15:46.667Z,34.50
2022-11-20T08:16:46.658Z,33.10
2022-11-20T08:18:08.222Z,34.00
2022-11-20T08:18:48.631Z,34.90
2022-11-20T08:19:46.625Z,33.80
2022-11-20T08:20:46.626Z,35.00
2022-11-20T08:21:46.625Z,35.00
2022-11-20T08:22:46.600Z,36.50
2022-11-20T08:23:46.593Z,34.70
2022-11-20T08:24:46.571Z,33.60
2022-11-20T08:25:46.574Z,34.50
2022-11-20T08:26:46.562Z,33.80
2022-11-20T08:27:46.552Z,32.10
2022-11-20T08:28:46.537Z,32.80
2022-11-20T08:29:46.530Z,32.70
2022-11-20T08:30:46.508Z,33.70
2022-11-20T08:31:46.522Z,31.90
2022-11-20T08:32:46.495Z,31.90
2022-11-20T08:33:46.478Z,33.00
2022-11-20T08:34:46.511Z,31.60
2022-11-20T08:35:46.496Z,32.20
2022-11-20T08:36:46.461Z,30.30
2022-11-20T08:37:46.448Z,29.90
2022-11-20T08:38:46.448Z,30.60
2022-11-20T08:39:46.445Z,30.50
2022-11-20T08:40:46.418Z,31.20
2022-11-20T08:41:46.438Z,30.80
2022-11-20T08:42:46.406Z,32.00
2022-11-20T08:43:46.403Z,33.50
2022-11-20T08:44:46.388Z,33.40
2022-11-20T08:45:46.375Z,34.40
2022-11-20T08:46:46.380Z,34.80
2022-11-20T08:47:46.342Z,32.20
2022-11-20T08:48:46.356Z,32.80
2022-11-20T08:49:46.332Z,32.10
2022-11-20T08:50:46.317Z,32.10
2022-11-20T08:51:46.336Z,30.60
2022-11-20T08:52:46.311Z,31.30
2022-11-20T08:53:46.292Z,31.10
2022-11-20T08:54:46.279Z,30.30
2022-11-20T08:55:46.282Z,30.60
2022-11-20T08:56:46.279Z,32.20
2022-11-20T08:57:50.607Z,32.40
2022-11-20T08:59:16.478Z,31.90
2022-11-20T09:00:05.587Z,30.50
2022-11-20T09:00:48.259Z,30.60
2022-11-20T09:01:46.217Z,32.40
2022-11-20T09:03:18.148Z,33.00
2022-11-20T09:03:46.216Z,32.80
2022-11-20T09:04:46.200Z,31.10
2022-11-20T09:05:46.192Z,32.00
2022-11-20T09:06:46.168Z,32.70
2022-11-20T09:07:46.164Z,32.40
2022-11-20T09:08:46.175Z,32.70
2022-11-20T09:09:46.409Z,31.60
2022-11-20T09:10:47.133Z,32.20
2022-11-20T09:11:46.126Z,31.90
2022-11-20T09:12:46.222Z,31.20
2022-11-20T09:13:46.126Z,30.60
2022-11-20T09:14:48.726Z,31.40
2022-11-20T09:15:46.164Z,32.50
2022-11-20T09:16:46.086Z,30.70
2022-11-20T09:17:46.086Z,32.70
2022-11-20T09:18:46.131Z,31.40
2022-11-20T09:19:46.568Z,31.10
2022-11-20T09:20:46.082Z,32.80
2022-11-20T09:21:46.081Z,30.20
2022-11-20T09:22:46.009Z,31.30
2022-11-20T09:23:46.128Z,32.40
2022-11-20T09:24:46.036Z,33.30
2022-11-20T09:25:45.985Z,33.90
2022-11-20T09:26:45.976Z,32.90
2022-11-20T09:27:45.959Z,34.40
2022-11-20T09:28:45.938Z,35.20
2022-11-20T09:29:45.970Z,33.50
2022-11-20T09:30:45.929Z,34.00
2022-11-20T09:31:45.907Z,34.30
2022-11-20T09:32:45.914Z,31.60
2022-11-20T09:33:45.901Z,33.40
2022-11-20T09:34:45.910Z,33.70
2022-11-20T09:35:45.889Z,33.20
2022-11-20T09:36:45.864Z,33.90
2022-11-20T09:37:45.874Z,34.20
2022-11-20T09:38:45.850Z,34.70
2022-11-20T09:39:45.849Z,34.80
2022-11-20T09:40:45.868Z,35.10
2022-11-20T09:41:45.815Z,33.50
2022-11-20T09:42:45.808Z,34.90
2022-11-20T09:43:45.833Z,37.10
2022-11-20T09:44:45.804Z,37.50
2022-11-20T09:45:45.817Z,33.60
2022-11-20T09:46:45.781Z,33.00
2022-11-20T09:47:45.778Z,34.20
2022-11-20T09:48:45.773Z,32.30
2022-11-20T09:49:45.743Z,31.50
2022-11-20T09:50:45.735Z,32.60
2022-11-20T09:51:45.731Z,31.60
2022-11-20T09:52:45.864Z,33.80
2022-11-20T09:53:45.780Z,32.10
2022-11-20T09:54:45.775Z,33.70
2022-11-20T09:55:45.677Z,31.50
2022-11-20T09:56:45.664Z,32.60
2022-11-20T09:57:45.737Z,33.50
2022-11-20T09:58:45.668Z,32.40
2022-11-20T09:59:45.643Z,31.10
2022-11-20T10:00:45.677Z,31.60
2022-11-20T10:01:45.623Z,30.80
2022-11-20T10:02:45.634Z,31.20
2022-11-20T10:03:45.661Z,36.40
2022-11-20T10:04:45.595Z,32.50
2022-11-20T10:05:45.582Z,30.70
2022-11-20T10:06:46.072Z,30.00
2022-11-20T10:07:45.583Z,31.00
2022-11-20T10:08:45.571Z,33.30
2022-11-20T10:09:45.566Z,32.00
2022-11-20T10:10:49.445Z,31.80
2022-11-20T10:11:47.520Z,31.10
2022-11-20T10:12:45.513Z,30.10
2022-11-20T10:13:45.506Z,30.70
2022-11-20T10:14:45.577Z,40.70
2022-11-20T10:15:45.473Z,41.10
2022-11-20T10:16:45.478Z,33.60
2022-11-20T10:17:45.465Z,34.70
2022-11-20T10:18:45.445Z,35.90
2022-11-20T10:19:45.446Z,34.00
2022-11-20T10:20:45.456Z,31.90
2022-11-20T10:21:45.418Z,30.40
2022-11-20T10:22:45.408Z,30.30
2022-11-20T10:23:45.404Z,31.80
2022-11-20T10:24:45.406Z,30.30
2022-11-20T10:25:45.453Z,29.40
2022-11-20T10:26:45.387Z,29.30
2022-11-20T10:27:45.369Z,29.50
2022-11-20T10:28:52.629Z,29.60
2022-11-20T10:29:47.345Z,28.70
2022-11-20T10:30:45.330Z,30.20
2022-11-20T10:31:45.342Z,31.10
2022-11-20T10:32:45.346Z,29.90
2022-11-20T10:34:10.683Z,30.70
2022-11-20T10:34:47.316Z,30.80
2022-11-20T10:35:45.310Z,30.60
2022-11-20T10:36:45.295Z,31.40
2022-11-20T10:37:45.280Z,31.80
2022-11-20T10:38:45.289Z,29.40
2022-11-20T10:39:45.247Z,31.80
2022-11-20T10:40:45.290Z,30.40
2022-11-20T10:41:45.256Z,32.80
2022-11-20T10:42:45.253Z,31.80
2022-11-20T10:43:45.207Z,32.50
2022-11-20T10:44:45.217Z,32.60
2022-11-20T10:45:45.185Z,32.10
2022-11-20T10:46:45.183Z,31.30
2022-11-20T10:47:45.179Z,31.10
2022-11-20T10:48:45.165Z,30.90
2022-11-20T10:49:45.172Z,30.30
2022-11-20T10:50:45.161Z,28.50
2022-11-20T10:51:45.129Z,29.40
2022-11-20T10:52:45.156Z,28.70
2022-11-20T10:53:45.111Z,31.50
2022-11-20T10:54:45.111Z,31.70
2022-11-20T10:55:46.095Z,29.60
2022-11-20T10:56:49.655Z,30.00
2022-11-20T10:57:47.085Z,31.70
2022-11-20T10:58:45.063Z,30.00
2022-11-20T10:59:45.062Z,30.10
2022-11-20T11:00:45.119Z,30.80
2022-11-20T11:01:45.042Z,31.20
2022-11-20T11:02:45.036Z,30.30
2022-11-20T11:03:45.021Z,31.90
2022-11-20T11:04:45.015Z,32.90
2022-11-20T11:05:45.024Z,34.70
2022-11-20T11:06:44.992Z,32.20
2022-11-20T11:07:45.055Z,31.90
2022-11-20T11:08:44.970Z,33.60
2022-11-20T11:09:44.970Z,33.80
2022-11-20T11:10:44.976Z,32.10
2022-11-20T11:11:44.950Z,31.60
2022-11-20T11:12:44.934Z,31.10
2022-11-20T11:13:44.923Z,31.20
2022-11-20T11:14:44.922Z,31.40
2022-11-20T11:15:44.929Z,32.50
2022-11-20T11:16:44.897Z,32.40
2022-11-20T11:17:44.879Z,32.20
2022-11-20T11:18:44.871Z,30.80
2022-11-20T11:19:45.847Z,32.10
2022-11-20T11:20:44.859Z,32.00
2022-11-20T11:21:44.861Z,31.40
2022-11-20T11:22:44.833Z,32.70
2022-11-20T11:23:44.835Z,32.70
2022-11-20T11:24:44.803Z,33.00
2022-11-20T11:25:44.810Z,32.70
2022-11-20T11:26:44.823Z,34.80
2022-11-20T11:27:44.784Z,33.20
2022-11-20T11:28:44.785Z,33.00
2022-11-20T11:29:44.753Z,34.10
2022-11-20T11:30:44.761Z,34.00
2022-11-20T11:31:44.746Z,33.90
2022-11-20T11:32:44.771Z,33.90
2022-11-20T11:33:44.724Z,34.80
2022-11-20T11:34:44.711Z,35.60
2022-11-20T11:35:48.258Z,33.80
2022-11-20T11:36:46.697Z,33.30
2022-11-20T11:37:44.714Z,34.90
2022-11-20T11:38:44.690Z,33.20
2022-11-20T11:39:44.661Z,33.10
2022-11-20T11:40:44.669Z,33.50
2022-11-20T11:41:44.673Z,34.00
2022-11-20T11:42:44.642Z,34.10
2022-11-20T11:43:44.624Z,34.80
2022-11-20T11:44:44.626Z,34.20
2022-11-20T11:45:44.611Z,33.50
2022-11-20T11:46:44.619Z,33.20
2022-11-20T11:47:44.590Z,34.10
2022-11-20T11:48:49.587Z,32.50
2022-11-20T11:49:46.602Z,34.00
2022-11-20T11:50:44.570Z,33.60
2022-11-20T11:51:44.551Z,33.60
2022-11-20T11:52:44.552Z,37.30
2022-11-20T11:53:44.546Z,33.80
2022-11-20T11:54:44.549Z,33.50
2022-11-20T11:55:44.514Z,34.20
2022-11-20T11:56:44.507Z,32.30
2022-11-20T11:57:44.510Z,34.10
2022-11-20T11:58:44.496Z,34.40
2022-11-20T11:59:44.491Z,33.60
2022-11-20T12:00:44.464Z,34.40
2022-11-20T12:01:44.456Z,34.30
2022-11-20T12:02:44.437Z,32.90
2022-11-20T12:03:44.435Z,34.30
2022-11-20T12:04:44.466Z,33.40
2022-11-20T12:05:44.414Z,33.90
2022-11-20T12:06:44.443Z,35.00
2022-11-20T12:07:47.359Z,33.90
2022-11-20T12:08:45.406Z,35.10
2022-11-20T12:09:44.392Z,32.90
2022-11-20T12:10:44.379Z,32.30
2022-11-20T12:11:44.360Z,32.40
2022-11-20T12:12:44.364Z,33.50
2022-11-20T12:13:44.356Z,32.00
2022-11-20T12:14:44.332Z,32.40
2022-11-20T12:15:44.345Z,33.60
2022-11-20T12:16:44.307Z,33.70
2022-11-20T12:17:44.307Z,34.30
2022-11-20T12:18:44.293Z,34.50
2022-11-20T12:19:44.289Z,32.80
2022-11-20T12:20:44.319Z,33.20
2022-11-20T12:21:44.276Z,33.10
2022-11-20T12:22:44.255Z,34.30
2022-11-20T12:23:44.244Z,32.40
2022-11-20T12:24:44.261Z,34.00
2022-11-20T12:25:44.238Z,32.00
2022-11-20T12:26:44.234Z,32.90
2022-11-20T12:27:44.228Z,33.20
2022-11-20T12:28:44.204Z,33.80
2022-11-20T12:29:44.215Z,34.00
2022-11-20T12:30:44.179Z,33.70
2022-11-20T12:31:44.209Z,33.30
2022-11-20T12:32:44.209Z,32.40
2022-11-20T12:33:44.168Z,33.40
2022-11-20T12:34:44.139Z,33.50
2022-11-20T12:35:44.141Z,31.90
2022-11-20T12:36:44.123Z,31.40
2022-11-20T12:37:44.111Z,33.50
2022-11-20T12:38:44.152Z,31.60
2022-11-20T12:39:44.082Z,32.90
2022-11-20T12:40:44.082Z,32.70
2022-11-20T12:41:44.078Z,33.40
2022-11-20T12:42:44.052Z,33.90
2022-11-20T12:43:44.060Z,33.50
2022-11-20T12:44:44.049Z,33.80
2022-11-20T12:45:44.023Z,32.90
2022-11-20T12:46:44.049Z,33.30
2022-11-20T12:47:44.005Z,32.80
2022-11-20T12:48:46.507Z,34.30
2022-11-20T12:49:44.988Z,32.70
2022-11-20T12:51:07.992Z,33.70
2022-11-20T12:51:44.972Z,33.40
2022-11-20T12:52:43.972Z,34.70